Bourneville, Ohio
Current Conditions -  °F | °C
As of 1:54 PM on Thursday 23 Oct 2014 (Local Time) from KRZT Reporting Station
Clear Clear  
Wind Chill: 55°   Ceiling: Unl
Heat Index: 55°   Visibility: 7mi
Dew Point: 37°   Wind: 5mph
Humidity: 51%   Direction: 40°NE
Pressure: 30.18"   Gusts: NA
Location:  39.28°N, 83.16°W
Report Text: KRZT 231754Z AUTO 04004KT 7SM CLR 13/03 A3018 RMK AO2
Loading
Personal Weather Stations






























Interactive Weather Map
Tropical Storm Tracking
New forecast layout! Learn more

10-Day Weather Forecast

Advertisements
Track Severe Weather on mobile